Time;durP1;ratioP1;P1;durP2;ratioP2;P2;SDS_P1;SDS_P2;PMS_P1;PMS_P2;Temp;Humidity;BMP_temperature;BMP_pressure;BME280_temperature;BME280_humidity;BME280_pressure;Samples;Min_cycle;Max_cycle;Signal;HPM_P1;HPM_P2
2021/07/06 00:01:33;;;;;;;13.77;8.40;;;18.20;85.30;;;;;;5072983;28;20415;-59
2021/07/06 00:03:59;;;;;;;11.40;8.27;;;18.10;85.20;;;;;;5091463;28;20047;-60
2021/07/06 00:06:25;;;;;;;12.18;8.55;;;18.20;85.40;;;;;;5089814;28;20372;-60
2021/07/06 00:08:53;;;;;;;15.05;8.45;;;18.10;85.50;;;;;;5090516;28;20043;-59
2021/07/06 00:11:19;;;;;;;12.35;8.55;;;18.10;85.80;;;;;;5089536;28;20035;-59
2021/07/06 00:13:45;;;;;;;10.98;8.00;;;18.10;85.90;;;;;;5092049;28;20040;-59
2021/07/06 00:16:11;;;;;;;14.90;9.05;;;18.00;86.00;;;;;;5094401;28;20487;-59
2021/07/06 00:18:37;;;;;;;13.15;9.48;;;18.00;86.10;;;;;;5090500;28;20521;-60
2021/07/06 00:21:03;;;;;;;11.75;8.30;;;18.00;86.20;;;;;;5091015;28;20040;-59
2021/07/06 00:23:29;;;;;;;11.93;8.40;;;18.00;86.40;;;;;;5062799;28;20035;-59
2021/07/06 00:25:56;;;;;;;15.10;9.02;;;18.00;86.70;;;;;;5073922;28;20032;-60
2021/07/06 00:28:23;;;;;;;14.90;8.93;;;18.00;86.80;;;;;;5090317;28;20039;-59
2021/07/06 00:30:50;;;;;;;19.95;9.98;;;18.00;87.00;;;;;;5091423;28;20051;-59
2021/07/06 00:33:17;;;;;;;15.50;9.50;;;18.00;87.30;;;;;;5092442;28;20169;-59
2021/07/06 00:35:42;;;;;;;15.07;8.98;;;18.10;87.70;;;;;;5091585;28;20092;-59
2021/07/06 00:38:09;;;;;;;10.57;8.93;;;18.10;86.80;;;;;;5089916;28;20400;-59
2021/07/06 00:40:50;;;;;;;13.80;8.98;;;18.10;86.60;;;;;;5091945;28;20038;-59
2021/07/06 00:43:17;;;;;;;18.77;10.65;;;18.10;86.20;;;;;;5046463;28;20051;-59
2021/07/06 00:45:43;;;;;;;15.82;9.88;;;18.10;86.30;;;;;;5090151;28;20035;-60
2021/07/06 00:48:09;;;;;;;13.23;9.70;;;18.10;85.90;;;;;;5090888;28;20046;-59
2021/07/06 00:50:34;;;;;;;16.27;9.77;;;18.10;85.80;;;;;;5092170;28;20036;-60
2021/07/06 00:53:00;;;;;;;12.68;8.95;;;18.10;85.80;;;;;;5093746;28;20047;-59
2021/07/06 00:55:26;;;;;;;10.80;8.13;;;18.10;85.90;;;;;;5090284;28;20531;-59
2021/07/06 00:57:52;;;;;;;10.20;8.38;;;18.10;85.90;;;;;;5090330;28;20032;-59
2021/07/06 01:00:23;;;;;;;14.38;9.55;;;18.10;85.80;;;;;;5090819;28;20039;-59
2021/07/06 01:02:50;;;;;;;14.27;9.02;;;18.10;85.40;;;;;;5090754;28;20398;-59
2021/07/06 01:05:23;;;;;;;12.15;8.82;;;18.10;85.40;;;;;;5091771;28;20034;-60
2021/07/06 01:07:50;;;;;;;13.25;8.93;;;18.10;85.40;;;;;;5090545;28;20143;-60
2021/07/06 01:10:16;;;;;;;11.10;8.48;;;18.10;85.70;;;;;;5073901;28;20119;-60
2021/07/06 01:12:44;;;;;;;11.93;8.82;;;18.10;86.10;;;;;;5092435;28;20609;-60
2021/07/06 01:15:17;;;;;;;11.80;9.07;;;18.10;86.00;;;;;;5088654;28;20066;-60
2021/07/06 01:17:44;;;;;;;14.82;9.18;;;18.10;85.90;;;;;;5061149;28;20153;-60
2021/07/06 01:20:16;;;;;;;12.68;8.90;;;18.10;85.70;;;;;;5091182;28;20089;-60
2021/07/06 01:22:44;;;;;;;11.63;8.50;;;18.10;85.80;;;;;;5091128;28;20040;-60
2021/07/06 01:25:11;;;;;;;15.13;9.35;;;18.10;85.70;;;;;;5089048;28;20043;-60
2021/07/06 01:27:39;;;;;;;14.18;9.27;;;18.10;85.60;;;;;;5092856;28;20062;-59
2021/07/06 01:30:07;;;;;;;12.93;9.02;;;18.10;85.40;;;;;;5091322;28;20063;-59
2021/07/06 01:32:33;;;;;;;15.00;9.48;;;18.10;85.40;;;;;;5061516;28;20028;-60
2021/07/06 01:34:58;;;;;;;12.40;9.18;;;18.10;85.60;;;;;;5089786;28;20044;-60
2021/07/06 01:37:25;;;;;;;13.20;8.73;;;18.10;85.40;;;;;;5090063;28;20048;-59
2021/07/06 01:39:51;;;;;;;12.65;8.57;;;18.10;85.50;;;;;;5072823;28;20067;-60
2021/07/06 01:42:19;;;;;;;12.35;8.50;;;18.10;85.40;;;;;;5091720;28;20128;-60
2021/07/06 01:44:45;;;;;;;13.75;8.63;;;18.10;85.50;;;;;;5087546;28;20110;-60
2021/07/06 01:47:12;;;;;;;12.77;8.85;;;18.10;85.60;;;;;;5072607;28;20035;-59
2021/07/06 01:49:37;;;;;;;13.52;8.63;;;18.00;85.60;;;;;;5092784;28;20051;-59
2021/07/06 01:52:04;;;;;;;10.98;9.55;;;18.00;86.00;;;;;;5088597;28;20058;-60
2021/07/06 01:54:30;;;;;;;13.43;9.35;;;18.00;86.10;;;;;;5089470;28;20032;-60
2021/07/06 01:56:55;;;;;;;13.10;8.90;;;17.90;86.10;;;;;;5092213;28;20039;-59
2021/07/06 01:59:21;;;;;;;14.98;9.05;;;17.90;86.30;;;;;;5060840;28;20036;-59
2021/07/06 02:01:47;;;;;;;15.05;10.27;;;17.90;86.60;;;;;;5090273;28;20425;-60
2021/07/06 02:04:15;;;;;;;12.70;9.25;;;17.80;87.10;;;;;;5088702;28;20035;-59
2021/07/06 02:06:42;;;;;;;10.93;8.95;;;17.80;86.90;;;;;;5090137;28;20047;-60
2021/07/06 02:09:08;;;;;;;10.68;9.35;;;17.80;86.80;;;;;;5091122;28;20035;-59
2021/07/06 02:11:34;;;;;;;11.75;9.80;;;17.90;86.70;;;;;;5094475;28;20033;-59
2021/07/06 02:14:01;;;;;;;12.23;9.35;;;17.80;86.80;;;;;;5093484;28;20089;-60
2021/07/06 02:16:27;;;;;;;13.95;9.90;;;17.80;86.90;;;;;;5054858;28;20401;-60
2021/07/06 02:18:54;;;;;;;10.18;9.00;;;17.80;87.00;;;;;;5094453;28;20040;-60
2021/07/06 02:21:20;;;;;;;12.52;9.57;;;17.80;87.20;;;;;;5094675;28;20085;-60
2021/07/06 02:23:47;;;;;;;11.00;9.00;;;17.90;87.40;;;;;;5092886;28;20036;-59
2021/07/06 02:26:13;;;;;;;14.32;10.80;;;17.80;87.70;;;;;;5093927;28;22273;-60
2021/07/06 02:28:40;;;;;;;13.35;10.52;;;17.80;88.00;;;;;;5095501;28;20594;-59
2021/07/06 02:31:06;;;;;;;15.32;10.07;;;17.80;88.20;;;;;;5093270;28;20032;-60
2021/07/06 02:33:35;;;;;;;11.77;10.27;;;17.80;88.50;;;;;;5092204;28;20132;-60
2021/07/06 02:36:06;;;;;;;17.08;10.13;;;17.70;88.70;;;;;;5076851;28;20436;-60
2021/07/06 02:38:32;;;;;;;13.38;9.13;;;17.70;88.90;;;;;;5094425;28;20510;-60
2021/07/06 02:40:58;;;;;;;13.30;9.20;;;17.70;89.20;;;;;;5093551;28;20054;-59
2021/07/06 02:43:24;;;;;;;11.15;9.63;;;17.70;89.30;;;;;;5074986;28;20645;-60
2021/07/06 02:45:51;;;;;;;10.07;8.93;;;17.70;89.60;;;;;;5095325;28;20036;-59
2021/07/06 02:48:16;;;;;;;11.07;8.98;;;17.70;89.90;;;;;;5077767;28;20394;-60
2021/07/06 02:50:43;;;;;;;15.18;9.13;;;17.70;90.10;;;;;;5093243;28;20046;-59
2021/07/06 02:53:10;;;;;;;13.25;8.40;;;17.60;90.10;;;;;;5092792;28;20041;-59
2021/07/06 02:55:37;;;;;;;10.82;8.82;;;17.60;90.30;;;;;;5094345;28;20027;-59
2021/07/06 02:58:03;;;;;;;12.38;8.43;;;17.60;90.40;;;;;;5063455;28;20110;-60
2021/07/06 03:00:32;;;;;;;10.23;7.78;;;17.60;90.50;;;;;;5093651;28;20117;-59
2021/07/06 03:02:59;;;;;;;10.70;7.85;;;17.60;90.60;;;;;;5092826;28;20111;-59
2021/07/06 03:05:29;;;;;;;11.25;8.25;;;17.60;90.70;;;;;;5094067;28;20036;-59
2021/07/06 03:07:56;;;;;;;10.38;7.88;;;17.60;90.80;;;;;;5095580;28;20040;-59
2021/07/06 03:10:27;;;;;;;10.75;7.88;;;17.60;90.90;;;;;;5093541;28;20055;-59
2021/07/06 03:12:54;;;;;;;7.53;6.38;;;17.60;91.00;;;;;;5092508;28;20028;-59
2021/07/06 03:15:22;;;;;;;9.10;6.65;;;17.60;91.10;;;;;;5094204;28;20386;-60
2021/07/06 03:17:49;;;;;;;9.45;6.72;;;17.60;91.10;;;;;;5092894;28;20115;-59
2021/07/06 03:20:18;;;;;;;9.40;6.50;;;17.60;91.10;;;;;;5093575;28;20506;-59
2021/07/06 03:22:44;;;;;;;7.38;5.63;;;17.60;91.20;;;;;;5090247;28;20118;-59
2021/07/06 03:25:11;;;;;;;6.55;5.78;;;17.60;91.20;;;;;;5094867;28;20035;-59
2021/07/06 03:27:37;;;;;;;7.32;6.03;;;17.70;91.20;;;;;;5093449;28;20040;-60
2021/07/06 03:30:12;;;;;;;7.93;5.60;;;17.70;91.20;;;;;;5091962;28;20097;-59
2021/07/06 03:32:37;;;;;;;5.78;5.18;;;17.70;91.20;;;;;;5093279;28;20062;-59
2021/07/06 03:35:05;;;;;;;8.93;5.57;;;17.70;91.30;;;;;;5092922;28;20519;-59
2021/07/06 03:37:31;;;;;;;10.13;5.70;;;17.70;91.30;;;;;;5047419;28;20059;-59
2021/07/06 03:39:56;;;;;;;9.73;6.45;;;17.70;91.30;;;;;;5092764;28;20386;-60
2021/07/06 03:42:22;;;;;;;6.85;5.55;;;17.70;91.20;;;;;;5091192;28;20407;-59
2021/07/06 03:44:48;;;;;;;8.02;5.53;;;17.70;91.30;;;;;;5063553;28;20050;-59
2021/07/06 03:47:14;;;;;;;8.48;5.70;;;17.70;91.40;;;;;;5094263;28;20048;-59
2021/07/06 03:49:39;;;;;;;6.25;5.65;;;17.70;91.30;;;;;;5073788;28;20036;-59
2021/07/06 03:52:06;;;;;;;6.18;5.40;;;17.70;91.30;;;;;;5090793;28;20044;-59
2021/07/06 03:54:32;;;;;;;9.05;5.60;;;17.70;91.40;;;;;;5092627;28;20032;-59
2021/07/06 03:56:58;;;;;;;9.40;5.20;;;17.70;91.40;;;;;;5079160;28;20051;-59
2021/07/06 03:59:24;;;;;;;6.97;5.38;;;17.70;91.50;;;;;;5093107;28;20155;-59
2021/07/06 04:01:50;;;;;;;6.78;5.03;;;17.70;91.50;;;;;;5091994;28;20081;-61
2021/07/06 04:04:16;;;;;;;7.40;4.78;;;17.80;91.50;;;;;;5093876;28;20059;-60
2021/07/06 04:06:42;;;;;;;8.25;4.45;;;17.80;91.50;;;;;;5094642;28;20035;-59
2021/07/06 04:09:08;;;;;;;7.30;4.70;;;17.80;91.50;;;;;;5091074;28;20051;-63
2021/07/06 04:11:33;;;;;;;8.60;5.03;;;17.80;91.40;;;;;;5092111;28;20035;-64
2021/07/06 04:13:59;;;;;;;5.60;5.05;;;17.80;91.40;;;;;;5073735;28;20067;-64
2021/07/06 04:16:25;;;;;;;5.65;5.13;;;17.80;91.30;;;;;;5093060;28;20039;-64
2021/07/06 04:18:51;;;;;;;8.90;5.68;;;17.80;91.40;;;;;;5091583;28;20052;-64
2021/07/06 04:21:17;;;;;;;10.27;6.05;;;17.80;91.50;;;;;;5072925;28;20038;-65
2021/07/06 04:23:43;;;;;;;7.53;5.60;;;17.80;91.50;;;;;;5092216;28;20028;-64
2021/07/06 04:26:09;;;;;;;8.32;6.05;;;17.90;91.60;;;;;;5093977;28;20043;-65
2021/07/06 04:28:35;;;;;;;8.60;6.85;;;17.90;91.60;;;;;;5091481;28;20047;-64
2021/07/06 04:31:02;;;;;;;11.30;7.07;;;18.00;91.50;;;;;;5090982;28;20040;-65
2021/07/06 04:33:28;;;;;;;7.82;7.03;;;18.00;91.50;;;;;;5092789;28;20028;-64
2021/07/06 04:35:54;;;;;;;10.15;7.00;;;18.00;91.40;;;;;;5073751;28;20036;-64
2021/07/06 04:38:20;;;;;;;8.23;5.80;;;18.00;91.40;;;;;;5091711;28;20044;-64
2021/07/06 04:40:46;;;;;;;6.43;5.72;;;18.00;91.30;;;;;;5090065;28;20355;-64
2021/07/06 04:43:12;;;;;;;6.70;5.90;;;18.10;91.40;;;;;;5090838;28;20495;-64
2021/07/06 04:45:38;;;;;;;6.72;6.03;;;18.10;91.40;;;;;;5092211;28;20136;-65
2021/07/06 04:48:05;;;;;;;7.80;6.35;;;18.10;91.40;;;;;;5092824;28;20522;-64
2021/07/06 04:50:36;;;;;;;10.80;6.75;;;18.10;91.40;;;;;;5090436;28;20032;-64
2021/07/06 04:53:03;;;;;;;6.88;6.18;;;18.10;91.40;;;;;;5091532;28;20040;-65
2021/07/06 04:55:29;;;;;;;7.57;6.18;;;18.20;91.40;;;;;;5089546;28;20032;-64
2021/07/06 04:57:55;;;;;;;9.27;5.80;;;18.20;91.30;;;;;;5091450;28;20108;-64
2021/07/06 05:00:21;;;;;;;8.30;5.60;;;18.30;91.30;;;;;;5088878;28;20114;-64
2021/07/06 05:02:47;;;;;;;5.70;5.13;;;18.30;91.30;;;;;;5073294;28;20129;-64
2021/07/06 05:05:13;;;;;;;5.65;4.32;;;18.30;91.30;;;;;;5091726;28;20463;-64
2021/07/06 05:07:40;;;;;;;6.30;4.78;;;18.30;91.30;;;;;;5091490;28;20059;-65
2021/07/06 05:10:08;;;;;;;6.28;3.97;;;18.40;91.30;;;;;;5090799;28;20078;-65
2021/07/06 05:12:34;;;;;;;5.38;3.85;;;18.40;91.40;;;;;;5090370;28;20042;-60
2021/07/06 05:15:00;;;;;;;5.72;3.38;;;18.40;91.40;;;;;;5091776;28;20040;-60
2021/07/06 05:17:26;;;;;;;4.72;2.97;;;18.40;91.40;;;;;;5090999;28;20040;-60
2021/07/06 05:19:52;;;;;;;4.38;3.30;;;18.40;91.40;;;;;;5087984;28;20480;-61
2021/07/06 05:22:17;;;;;;;5.82;2.60;;;18.40;91.50;;;;;;5091467;28;20032;-60
2021/07/06 05:24:43;;;;;;;5.03;2.30;;;18.50;91.50;;;;;;5092989;28;20051;-60
2021/07/06 05:27:09;;;;;;;5.60;2.90;;;18.50;91.40;;;;;;5089423;28;20151;-60
2021/07/06 05:29:35;;;;;;;5.03;2.42;;;18.50;91.40;;;;;;5091769;28;20039;-60
2021/07/06 05:32:02;;;;;;;5.75;2.38;;;18.60;91.30;;;;;;5091155;28;20052;-61
2021/07/06 05:34:28;;;;;;;2.30;2.10;;;18.60;91.30;;;;;;5091536;28;20043;-60
2021/07/06 05:36:54;;;;;;;2.78;2.10;;;18.60;91.20;;;;;;5089395;28;20032;-61
2021/07/06 05:39:20;;;;;;;2.15;1.73;;;18.60;91.20;;;;;;5090192;28;20040;-61
2021/07/06 05:41:46;;;;;;;3.75;1.35;;;18.70;91.20;;;;;;5061866;28;20950;-60
2021/07/06 05:44:13;;;;;;;1.95;1.63;;;18.80;90.90;;;;;;5091767;28;20040;-60
2021/07/06 05:46:39;;;;;;;3.75;1.50;;;18.80;90.70;;;;;;5089458;28;20514;-64
2021/07/06 05:49:05;;;;;;;3.80;1.70;;;18.80;90.60;;;;;;5089575;28;20244;-64
2021/07/06 05:51:31;;;;;;;2.53;1.40;;;18.90;90.70;;;;;;5089058;28;20055;-61
2021/07/06 05:53:57;;;;;;;5.40;1.27;;;19.00;90.60;;;;;;5090975;28;20476;-59
2021/07/06 05:56:22;;;;;;;3.20;1.00;;;19.10;90.30;;;;;;5089857;28;20033;-59
2021/07/06 05:58:49;;;;;;;5.75;1.30;;;19.20;90.10;;;;;;5090323;28;20048;-60
2021/07/06 06:01:15;;;;;;;5.10;1.60;;;19.30;89.50;;;;;;5090862;28;20146;-60
2021/07/06 06:03:41;;;;;;;2.60;1.55;;;19.30;89.60;;;;;;5092896;28;20066;-60
2021/07/06 06:06:08;;;;;;;2.45;1.92;;;19.30;89.80;;;;;;5087089;28;20048;-60
2021/07/06 06:08:35;;;;;;;4.50;2.72;;;19.30;89.50;;;;;;5090007;28;20040;-60
2021/07/06 06:11:02;;;;;;;5.88;3.15;;;19.30;89.00;;;;;;5088790;28;20035;-60
2021/07/06 06:13:27;;;;;;;5.32;2.47;;;19.40;88.40;;;;;;5081306;28;20043;-60
2021/07/06 06:15:53;;;;;;;2.70;1.75;;;19.40;88.40;;;;;;5083812;28;20415;-60
2021/07/06 06:18:19;;;;;;;3.70;2.05;;;19.40;88.30;;;;;;5070815;28;20126;-61
2021/07/06 06:20:45;;;;;;;4.43;1.50;;;19.40;88.20;;;;;;5089732;28;20560;-61
2021/07/06 06:23:10;;;;;;;1.67;0.90;;;19.50;87.50;;;;;;5088535;28;20074;-60
2021/07/06 06:25:36;;;;;;;2.85;1.00;;;19.50;87.40;;;;;;5090002;28;20027;-60
2021/07/06 06:28:02;;;;;;;1.45;0.90;;;19.50;87.10;;;;;;5087325;28;20123;-60
2021/07/06 06:30:28;;;;;;;2.72;1.33;;;19.50;87.30;;;;;;5088512;28;20032;-59
2021/07/06 06:32:55;;;;;;;4.60;1.25;;;19.50;87.50;;;;;;5089654;28;20596;-61
2021/07/06 06:35:22;;;;;;;3.75;1.45;;;19.50;87.90;;;;;;5087168;28;20051;-60
2021/07/06 06:37:48;;;;;;;4.53;1.40;;;19.40;89.30;;;;;;5072508;28;20040;-60
2021/07/06 06:40:14;;;;;;;8.73;2.25;;;19.30;90.30;;;;;;5088467;28;20029;-60
2021/07/06 06:42:41;;;;;;;4.72;1.38;;;19.20;90.60;;;;;;5090050;28;20039;-59
2021/07/06 06:45:09;;;;;;;2.85;1.42;;;19.10;91.00;;;;;;5069705;28;20554;-60
2021/07/06 06:47:36;;;;;;;3.03;1.50;;;19.00;91.20;;;;;;5069847;28;20038;-59
2021/07/06 06:50:04;;;;;;;3.78;1.58;;;19.00;91.40;;;;;;5089019;28;20051;-59
2021/07/06 06:52:29;;;;;;;3.92;1.58;;;19.00;91.60;;;;;;5091766;28;20032;-59
2021/07/06 06:54:55;;;;;;;3.22;1.30;;;18.90;91.60;;;;;;5087374;28;20043;-59
2021/07/06 06:57:21;;;;;;;1.33;1.23;;;19.00;91.50;;;;;;5090655;28;20062;-61
2021/07/06 06:59:51;;;;;;;4.90;1.35;;;19.00;91.60;;;;;;5075840;28;20129;-59
2021/07/06 07:02:17;;;;;;;3.28;1.27;;;19.00;91.60;;;;;;5079575;28;20040;-59
2021/07/06 07:04:51;;;;;;;3.50;1.30;;;19.00;91.50;;;;;;5091813;28;20467;-59
2021/07/06 07:07:19;;;;;;;2.17;1.20;;;19.00;91.30;;;;;;5063658;28;20036;-59
2021/07/06 07:09:45;;;;;;;2.30;1.15;;;19.10;91.20;;;;;;5094081;28;20088;-61
2021/07/06 07:12:12;;;;;;;5.72;0.88;;;19.10;91.10;;;;;;5092296;28;20152;-61
2021/07/06 07:14:38;;;;;;;2.13;1.20;;;19.10;91.00;;;;;;5092384;28;20043;-61
2021/07/06 07:17:05;;;;;;;2.33;1.33;;;19.10;91.10;;;;;;5094881;28;20557;-61
2021/07/06 07:19:31;;;;;;;4.47;1.48;;;19.10;91.30;;;;;;5093681;28;20032;-61
2021/07/06 07:21:57;;;;;;;3.42;1.13;;;19.10;91.20;;;;;;5086594;28;20093;-61
2021/07/06 07:24:23;;;;;;;3.92;1.23;;;19.10;91.10;;;;;;5093766;28;20764;-61
2021/07/06 07:26:49;;;;;;;6.78;1.20;;;19.20;91.10;;;;;;5075449;28;20032;-61
2021/07/06 07:29:16;;;;;;;3.08;1.10;;;19.20;91.10;;;;;;5091799;28;20119;-61
2021/07/06 07:31:42;;;;;;;3.85;1.10;;;19.20;91.10;;;;;;5090320;28;20047;-61
2021/07/06 07:34:08;;;;;;;3.42;1.15;;;19.30;91.00;;;;;;5092209;28;20056;-61
2021/07/06 07:36:35;;;;;;;1.40;0.88;;;19.30;90.90;;;;;;5074725;28;20039;-61
2021/07/06 07:39:01;;;;;;;3.10;1.20;;;19.40;90.90;;;;;;5066953;28;20055;-62
2021/07/06 07:41:27;;;;;;;2.90;1.45;;;19.40;90.50;;;;;;5080388;28;20043;-61
2021/07/06 07:43:55;;;;;;;3.75;1.33;;;19.50;90.60;;;;;;5072811;28;20044;-61
2021/07/06 07:46:22;;;;;;;5.28;1.85;;;19.50;90.40;;;;;;5070138;28;20045;-62
2021/07/06 07:48:48;;;;;;;2.00;1.23;;;19.60;90.40;;;;;;5069891;28;20078;-62
2021/07/06 07:51:15;;;;;;;4.95;1.33;;;19.60;90.30;;;;;;5067204;28;20112;-62
2021/07/06 07:53:41;;;;;;;3.33;1.67;;;19.60;90.20;;;;;;5059077;28;20041;-62
2021/07/06 07:56:06;;;;;;;5.82;1.83;;;19.70;90.10;;;;;;5068795;28;20535;-61
2021/07/06 07:58:32;;;;;;;3.58;1.10;;;19.70;90.00;;;;;;5071175;28;20040;-61
2021/07/06 08:00:58;;;;;;;2.05;1.00;;;19.80;89.70;;;;;;5072868;28;20036;-62
2021/07/06 08:03:24;;;;;;;1.88;1.10;;;19.80;89.70;;;;;;5071317;28;20040;-59
2021/07/06 08:05:50;;;;;;;4.40;1.45;;;19.80;89.60;;;;;;5048591;28;20048;-60
2021/07/06 08:08:16;;;;;;;2.40;1.40;;;19.90;89.40;;;;;;5069731;28;20124;-61
2021/07/06 08:10:42;;;;;;;5.35;1.27;;;19.90;88.90;;;;;;5070883;28;20036;-60
2021/07/06 08:13:09;;;;;;;2.33;1.05;;;20.00;88.40;;;;;;5069793;28;20091;-61
2021/07/06 08:15:36;;;;;;;2.20;1.30;;;20.10;88.60;;;;;;5069563;28;20498;-61
2021/07/06 08:18:02;;;;;;;7.07;2.00;;;20.10;88.70;;;;;;5072846;28;22280;-59
2021/07/06 08:20:28;;;;;;;5.50;1.58;;;20.10;88.70;;;;;;5070479;28;20045;-61
2021/07/06 08:22:56;;;;;;;3.50;1.17;;;20.20;88.50;;;;;;5070880;28;20043;-59
2021/07/06 08:25:24;;;;;;;4.28;1.50;;;20.20;88.40;;;;;;5072998;28;20040;-59
2021/07/06 08:27:49;;;;;;;4.05;1.63;;;20.20;88.40;;;;;;5071920;28;20586;-62
2021/07/06 08:30:15;;;;;;;5.60;1.20;;;20.20;87.70;;;;;;5071961;28;20122;-60
2021/07/06 08:32:41;;;;;;;7.60;1.50;;;20.30;87.70;;;;;;5068639;28;20075;-60
2021/07/06 08:35:09;;;;;;;4.30;1.40;;;20.20;87.50;;;;;;5072258;28;20047;-61
2021/07/06 08:37:35;;;;;;;3.33;1.02;;;20.20;87.70;;;;;;5076063;28;20032;-61
2021/07/06 08:40:03;;;;;;;2.05;1.10;;;20.30;87.70;;;;;;5090450;28;20449;-61
2021/07/06 08:42:29;;;;;;;2.80;1.08;;;20.30;87.70;;;;;;5091510;28;20434;-61
2021/07/06 08:44:55;;;;;;;5.47;1.35;;;20.30;87.80;;;;;;5063022;28;20032;-61
2021/07/06 08:47:23;;;;;;;5.55;1.20;;;20.30;87.70;;;;;;5091772;28;20035;-61
2021/07/06 08:49:51;;;;;;;2.50;1.40;;;20.30;87.60;;;;;;5088740;28;20039;-61
2021/07/06 08:52:18;;;;;;;9.00;1.90;;;20.30;87.50;;;;;;5092067;28;20044;-61
2021/07/06 08:54:48;;;;;;;2.60;1.15;;;20.40;87.60;;;;;;5088647;28;20046;-61
2021/07/06 08:57:13;;;;;;;3.55;1.17;;;20.40;87.30;;;;;;5089845;28;20038;-61
2021/07/06 08:59:40;;;;;;;4.97;1.50;;;20.40;87.40;;;;;;5090279;28;20047;-61
2021/07/06 09:02:11;;;;;;;4.20;1.77;;;20.50;87.10;;;;;;5087800;28;20071;-61
2021/07/06 09:04:43;;;;;;;5.22;1.75;;;20.60;87.00;;;;;;5090622;28;20028;-61
2021/07/06 09:07:09;;;;;;;1.63;1.15;;;20.60;86.90;;;;;;5060066;28;20394;-60
2021/07/06 09:09:35;;;;;;;3.75;1.42;;;20.70;86.80;;;;;;5093236;28;20085;-61
2021/07/06 09:12:01;;;;;;;4.43;1.42;;;20.80;86.30;;;;;;5092024;28;20047;-60
2021/07/06 09:14:30;;;;;;;3.38;1.40;;;20.90;86.00;;;;;;5062947;28;20067;-60
2021/07/06 09:17:14;;;;;;;2.63;1.17;;;21.00;85.50;;;;;;5089676;28;20084;-61
2021/07/06 09:19:42;;;;;;;1.95;1.30;;;21.00;85.80;;;;;;5077170;28;20044;-60
2021/07/06 09:22:12;;;;;;;3.88;1.35;;;21.10;85.10;;;;;;5089904;28;20040;-61
2021/07/06 09:24:40;;;;;;;5.65;1.25;;;21.10;84.90;;;;;;5089872;28;20047;-61
2021/07/06 09:27:20;;;;;;;6.18;1.20;;;21.20;84.80;;;;;;5090648;28;20069;-61
2021/07/06 09:30:23;;;;;;;3.55;1.27;;;21.20;84.00;;;;;;5090224;28;20078;-61
2021/07/06 09:32:54;;;;;;;9.32;1.50;;;21.30;82.70;;;;;;5090481;28;20059;-60
2021/07/06 09:35:26;;;;;;;3.90;1.23;;;21.30;83.00;;;;;;5088820;28;20069;-62
2021/07/06 09:38:04;;;;;;;2.65;1.10;;;21.30;83.00;;;;;;5088728;28;20052;-60
2021/07/06 09:40:39;;;;;;;3.38;1.27;;;21.30;82.40;;;;;;5058679;28;20449;-60
2021/07/06 09:43:35;;;;;;;3.67;1.33;;;21.50;82.20;;;;;;5090350;28;20063;-60
2021/07/06 09:46:09;;;;;;;3.33;1.20;;;21.80;80.80;;;;;;5070945;28;20059;-60
2021/07/06 09:48:43;;;;;;;2.42;1.00;;;22.00;79.80;;;;;;5089485;28;20047;-60
2021/07/06 09:51:19;;;;;;;2.78;1.10;;;22.10;79.00;;;;;;5087630;28;20032;-61
2021/07/06 09:53:47;;;;;;;3.38;1.25;;;22.20;78.80;;;;;;5062340;28;20043;-61
2021/07/06 09:56:16;;;;;;;3.00;1.30;;;22.30;78.30;;;;;;5090045;28;20093;-61
2021/07/06 09:59:00;;;;;;;3.25;0.90;;;22.40;77.50;;;;;;5061108;28;20035;-62
2021/07/06 10:01:28;;;;;;;5.00;1.13;;;22.60;76.20;;;;;;5088772;28;20048;-61
2021/07/06 10:03:55;;;;;;;7.00;1.05;;;22.50;75.50;;;;;;5090121;28;20081;-61
2021/07/06 10:06:24;;;;;;;4.88;1.25;;;22.50;76.10;;;;;;5087601;28;20032;-61
2021/07/06 10:08:50;;;;;;;1.50;0.82;;;22.50;76.90;;;;;;5089014;28;20036;-61
2021/07/06 10:11:17;;;;;;;9.10;1.00;;;22.50;76.20;;;;;;5073458;28;20040;-61
2021/07/06 10:13:43;;;;;;;4.45;0.80;;;22.60;76.30;;;;;;5071419;28;20059;-61
2021/07/06 10:16:09;;;;;;;1.45;0.70;;;22.60;74.10;;;;;;5088526;28;20119;-61
2021/07/06 10:18:36;;;;;;;2.95;0.88;;;22.60;73.20;;;;;;5072182;28;20039;-61
2021/07/06 10:21:04;;;;;;;3.35;0.98;;;22.70;74.50;;;;;;5086971;28;20044;-61
2021/07/06 10:23:34;;;;;;;1.95;0.77;;;22.70;74.50;;;;;;5088678;28;20067;-61
2021/07/06 10:26:04;;;;;;;2.38;0.70;;;22.70;73.70;;;;;;5058619;28;20880;-60
2021/07/06 10:28:31;;;;;;;3.53;0.52;;;22.80;74.00;;;;;;5060887;28;20050;-61
2021/07/06 10:31:16;;;;;;;5.38;1.02;;;22.90;74.40;;;;;;5088004;28;20036;-61
2021/07/06 10:33:44;;;;;;;5.18;1.17;;;23.10;72.90;;;;;;5093302;28;20776;-64
2021/07/06 10:36:13;;;;;;;2.78;0.90;;;23.10;71.70;;;;;;5094350;28;20050;-64
2021/07/06 10:38:47;;;;;;;2.70;1.00;;;23.20;72.60;;;;;;5091342;28;20053;-64
2021/07/06 10:41:17;;;;;;;1.27;0.77;;;23.20;72.80;;;;;;5091932;28;20035;-64
2021/07/06 10:43:45;;;;;;;8.57;1.02;;;23.10;73.60;;;;;;5090743;28;20051;-64
2021/07/06 10:46:20;;;;;;;1.65;0.85;;;23.00;72.30;;;;;;5091905;28;20158;-64
2021/07/06 10:49:00;;;;;;;5.97;0.90;;;22.90;72.50;;;;;;5090723;28;20071;-64
2021/07/06 10:51:49;;;;;;;5.15;1.00;;;22.80;71.60;;;;;;5091986;28;20434;-64
2021/07/06 10:54:25;;;;;;;4.95;0.90;;;22.70;72.00;;;;;;5094286;28;20387;-64
2021/07/06 10:57:13;;;;;;;2.90;0.70;;;22.60;72.60;;;;;;5092633;28;20036;-64
2021/07/06 10:59:39;;;;;;;1.83;0.57;;;22.60;72.00;;;;;;5092412;28;20067;-64
2021/07/06 11:02:21;;;;;;;2.90;0.80;;;22.60;71.70;;;;;;5090304;28;20123;-64
2021/07/06 11:04:50;;;;;;;4.78;0.70;;;22.70;72.20;;;;;;5093690;28;20054;-64
2021/07/06 11:07:28;;;;;;;2.35;0.85;;;22.80;72.30;;;;;;5091722;28;20028;-64
2021/07/06 11:09:54;;;;;;;6.03;0.82;;;23.00;72.40;;;;;;5093762;28;20088;-63
2021/07/06 11:12:21;;;;;;;4.10;0.68;;;23.20;71.90;;;;;;5094172;28;20479;-63
2021/07/06 11:15:03;;;;;;;6.55;1.30;;;23.40;71.20;;;;;;5093873;28;20038;-64
2021/07/06 11:17:36;;;;;;;4.67;0.97;;;23.50;69.50;;;;;;5091785;28;20096;-63
2021/07/06 11:20:07;;;;;;;4.57;0.80;;;23.40;69.70;;;;;;5093865;28;21037;-64
2021/07/06 11:22:45;;;;;;;7.30;0.88;;;23.40;69.20;;;;;;5092679;28;20088;-63
2021/07/06 11:25:24;;;;;;;5.18;0.95;;;23.40;68.00;;;;;;5093616;28;20047;-63
2021/07/06 11:28:13;;;;;;;4.45;0.65;;;23.60;66.30;;;;;;5063172;28;20146;-63
2021/07/06 11:30:46;;;;;;;5.47;0.90;;;23.60;65.50;;;;;;5094154;28;20039;-63
2021/07/06 11:33:13;;;;;;;2.72;0.80;;;23.50;66.10;;;;;;5093704;28;20091;-63
2021/07/06 11:35:57;;;;;;;3.47;0.73;;;23.40;66.70;;;;;;5087343;28;20066;-63
2021/07/06 11:38:25;;;;;;;3.55;0.70;;;23.50;66.60;;;;;;5070206;28;20072;-64
2021/07/06 11:41:02;;;;;;;8.32;0.70;;;23.60;66.00;;;;;;5060548;28;20085;-64
2021/07/06 11:43:30;;;;;;;2.95;0.80;;;23.60;64.50;;;;;;5070569;28;20045;-64
2021/07/06 11:45:57;;;;;;;6.20;1.65;;;23.60;64.80;;;;;;5073306;28;20032;-64
2021/07/06 11:48:25;;;;;;;2.92;0.80;;;23.50;64.10;;;;;;5072795;28;20044;-64
2021/07/06 11:50:52;;;;;;;4.20;0.70;;;23.20;64.60;;;;;;5070970;28;20032;-64
2021/07/06 11:53:26;;;;;;;3.17;1.17;;;23.00;65.40;;;;;;5058775;28;20464;-65
2021/07/06 11:55:56;;;;;;;4.78;1.80;;;22.90;68.10;;;;;;5072362;28;20078;-64
2021/07/06 11:58:24;;;;;;;8.27;1.20;;;22.80;68.50;;;;;;5071170;28;20043;-64
2021/07/06 12:00:51;;;;;;;3.60;0.90;;;22.80;69.40;;;;;;5070910;28;20036;-63
2021/07/06 12:03:26;;;;;;;2.67;1.20;;;22.70;68.60;;;;;;5070536;28;20025;-63
2021/07/06 12:05:55;;;;;;;4.10;2.47;;;22.70;68.60;;;;;;5071878;28;20109;-63
2021/07/06 12:08:27;;;;;;;8.40;5.32;;;22.70;68.70;;;;;;5071958;28;20060;-63
2021/07/06 12:11:11;;;;;;;5.93;1.65;;;22.80;68.10;;;;;;5069968;28;20029;-64
2021/07/06 12:13:48;;;;;;;5.30;1.08;;;22.90;67.30;;;;;;5069962;28;20056;-64
2021/07/06 12:16:18;;;;;;;4.65;1.58;;;22.90;66.40;;;;;;5069223;28;20118;-64
2021/07/06 12:18:53;;;;;;;5.32;2.38;;;23.10;66.10;;;;;;5062228;28;20033;-64
2021/07/06 12:21:27;;;;;;;2.95;1.35;;;23.10;66.90;;;;;;5070352;28;20037;-64
2021/07/06 12:23:54;;;;;;;1.73;1.02;;;23.10;66.10;;;;;;5073260;28;20081;-64
2021/07/06 12:26:21;;;;;;;3.90;0.73;;;23.10;66.20;;;;;;5058256;28;20036;-65
2021/07/06 12:28:47;;;;;;;4.97;0.65;;;23.10;65.10;;;;;;5057805;28;20032;-65
2021/07/06 12:31:21;;;;;;;4.22;1.17;;;23.20;65.20;;;;;;5070489;28;20202;-65
2021/07/06 12:34:06;;;;;;;2.35;1.08;;;23.30;65.40;;;;;;5071738;28;20040;-62
2021/07/06 12:36:40;;;;;;;2.55;0.70;;;23.40;63.20;;;;;;5070289;28;20043;-62
2021/07/06 12:39:19;;;;;;;1.90;1.10;;;23.40;64.10;;;;;;5081868;28;20063;-62
2021/07/06 12:41:53;;;;;;;4.72;1.20;;;23.50;64.40;;;;;;5091125;28;20067;-62
2021/07/06 12:44:32;;;;;;;3.72;0.93;;;23.40;65.20;;;;;;5074493;28;20036;-62
2021/07/06 12:47:16;;;;;;;3.03;0.82;;;23.30;64.80;;;;;;5087388;28;20032;-62
2021/07/06 12:50:11;;;;;;;4.72;0.65;;;23.20;65.10;;;;;;5060597;28;20036;-65